Time;durP1;ratioP1;P1;durP2;ratioP2;P2;SDS_P1;SDS_P2;PMS_P1;PMS_P2;Temp;Humidity;BMP_temperature;BMP_pressure;BME280_temperature;BME280_humidity;BME280_pressure;Samples;Min_cycle;Max_cycle;Signal;HPM_P1;HPM_P2
2021/07/18 00:00:20;;;;;;;15.75;14.40;;;21.60;82.90;;;;;;5083007;28;20203;-90
2021/07/18 00:02:45;;;;;;;16.08;14.38;;;21.70;82.50;;;;;;5065569;28;20199;-90
2021/07/18 00:05:11;;;;;;;15.95;14.57;;;21.70;82.20;;;;;;5083454;28;20183;-90
2021/07/18 00:07:37;;;;;;;16.25;14.88;;;21.60;81.70;;;;;;5083088;28;20192;-90
2021/07/18 00:10:05;;;;;;;15.90;14.35;;;21.70;81.50;;;;;;5066382;28;20187;-90
2021/07/18 00:12:30;;;;;;;16.05;14.55;;;21.60;82.00;;;;;;5082978;28;20229;-91
2021/07/18 00:14:56;;;;;;;16.58;15.18;;;21.60;82.10;;;;;;5066300;28;20187;-91
2021/07/18 00:17:22;;;;;;;16.05;14.75;;;21.60;82.40;;;;;;5064305;28;20187;-91
2021/07/18 00:19:48;;;;;;;16.67;15.27;;;21.70;81.90;;;;;;5082146;28;20228;-90
2021/07/18 00:22:13;;;;;;;16.20;14.57;;;21.70;81.10;;;;;;5064914;28;20230;-90
2021/07/18 00:24:39;;;;;;;14.65;13.27;;;21.70;81.00;;;;;;5082701;28;20279;-90
2021/07/18 00:27:05;;;;;;;14.80;13.68;;;21.60;81.20;;;;;;5082357;28;20202;-89
2021/07/18 00:29:31;;;;;;;15.13;13.73;;;21.70;81.20;;;;;;5082486;28;20638;-89
2021/07/18 00:31:57;;;;;;;17.27;13.75;;;21.60;81.10;;;;;;5065346;28;20214;-90
2021/07/18 00:34:23;;;;;;;14.07;12.93;;;21.60;80.70;;;;;;5085742;28;20234;-89
2021/07/18 00:36:48;;;;;;;13.48;12.27;;;21.60;80.40;;;;;;5085695;28;20217;-90
2021/07/18 00:39:15;;;;;;;13.30;12.02;;;21.70;80.30;;;;;;5051360;28;20214;-89
2021/07/18 00:41:42;;;;;;;12.98;11.80;;;21.50;80.30;;;;;;5086104;28;20226;-91
2021/07/18 00:44:08;;;;;;;12.55;11.35;;;21.50;80.50;;;;;;5087135;28;20172;-89
2021/07/18 00:46:34;;;;;;;12.95;11.75;;;21.40;80.20;;;;;;5069254;28;20180;-91
2021/07/18 00:49:00;;;;;;;13.52;12.45;;;21.50;81.40;;;;;;5068970;28;20183;-90
2021/07/18 00:51:26;;;;;;;12.48;11.40;;;21.40;80.40;;;;;;5087203;28;20195;-90
2021/07/18 00:53:52;;;;;;;12.13;11.02;;;21.50;79.90;;;;;;5069721;28;20207;-90
2021/07/18 00:56:18;;;;;;;11.80;10.68;;;21.50;80.10;;;;;;5086844;28;20191;-89
2021/07/18 00:58:45;;;;;;;11.85;10.85;;;21.50;79.60;;;;;;5086591;28;20282;-90
2021/07/18 01:01:12;;;;;;;11.57;10.55;;;21.40;79.70;;;;;;5068985;28;20180;-90
2021/07/18 01:03:38;;;;;;;12.23;10.88;;;21.40;79.70;;;;;;5069024;28;20672;-91
2021/07/18 01:06:04;;;;;;;9.80;8.80;;;21.40;80.10;;;;;;5069607;28;20180;-90
2021/07/18 01:08:29;;;;;;;10.60;9.80;;;21.30;79.70;;;;;;5069327;28;20254;-91
2021/07/18 01:10:55;;;;;;;11.18;10.18;;;21.10;80.40;;;;;;5086088;28;20175;-91
2021/07/18 01:13:21;;;;;;;9.60;8.65;;;21.00;81.00;;;;;;5068684;28;20187;-90
2021/07/18 01:15:46;;;;;;;8.60;7.80;;;21.00;80.30;;;;;;5086868;28;20519;-91
2021/07/18 01:18:13;;;;;;;8.50;7.80;;;20.80;78.70;;;;;;5068456;28;20237;-90
2021/07/18 01:20:41;;;;;;;9.15;6.95;;;20.80;79.20;;;;;;5086254;28;20213;-91
2021/07/18 01:23:07;;;;;;;9.73;6.47;;;20.80;77.10;;;;;;5069101;28;20243;-89
2021/07/18 01:25:34;;;;;;;8.82;7.03;;;20.60;77.50;;;;;;5086798;28;20198;-90
2021/07/18 01:28:04;;;;;;;7.75;5.93;;;20.60;78.00;;;;;;5086831;28;20802;-90
2021/07/18 01:30:30;;;;;;;7.68;6.20;;;20.60;77.20;;;;;;5086675;28;20186;-90
2021/07/18 01:32:55;;;;;;;7.32;6.15;;;20.60;78.10;;;;;;5082035;28;20580;-91
2021/07/18 01:35:21;;;;;;;7.78;6.60;;;20.60;77.30;;;;;;5066091;28;20190;-91
2021/07/18 01:37:47;;;;;;;6.88;6.25;;;20.50;77.30;;;;;;5066178;28;20187;-91
2021/07/18 01:40:13;;;;;;;7.63;6.60;;;20.60;77.00;;;;;;5048515;28;20268;-92
2021/07/18 01:42:40;;;;;;;8.05;6.75;;;20.60;78.20;;;;;;5065898;28;20186;-90
2021/07/18 01:45:07;;;;;;;8.95;5.50;;;20.60;77.10;;;;;;5048298;28;20274;-90
2021/07/18 01:47:33;;;;;;;5.53;5.00;;;20.60;75.60;;;;;;5066687;28;20235;-91
2021/07/18 01:49:59;;;;;;;6.68;5.75;;;20.60;75.70;;;;;;5066359;28;20589;-91
2021/07/18 01:52:24;;;;;;;5.75;5.20;;;20.60;76.20;;;;;;5065177;28;20204;-90
2021/07/18 01:54:55;;;;;;;6.13;5.57;;;20.60;75.90;;;;;;5065790;28;20208;-91
2021/07/18 01:57:20;;;;;;;7.53;5.80;;;20.60;76.90;;;;;;5066265;28;20206;-90
2021/07/18 01:59:46;;;;;;;9.20;6.10;;;20.60;77.10;;;;;;5065441;28;20211;-90
2021/07/18 02:02:14;;;;;;;5.90;5.28;;;20.60;78.10;;;;;;5047803;28;20206;-90
2021/07/18 02:04:39;;;;;;;8.15;7.35;;;20.60;75.50;;;;;;5065830;28;20179;-90
2021/07/18 02:07:06;;;;;;;7.40;5.95;;;20.60;76.20;;;;;;5032439;28;20190;-89
2021/07/18 02:09:35;;;;;;;10.63;6.55;;;20.60;76.20;;;;;;5065305;28;20244;-89
2021/07/18 02:12:03;;;;;;;8.35;5.60;;;20.60;76.70;;;;;;5065410;28;20203;-91
2021/07/18 02:14:31;;;;;;;6.20;5.60;;;20.50;76.00;;;;;;5065781;28;20179;-90
2021/07/18 02:16:57;;;;;;;9.15;5.80;;;20.50;77.60;;;;;;5048767;28;20184;-90
2021/07/18 02:19:28;;;;;;;7.55;4.75;;;20.50;76.20;;;;;;5065243;28;20275;-91
2021/07/18 02:21:54;;;;;;;5.68;5.18;;;20.40;76.70;;;;;;5065685;28;20255;-90
2021/07/18 02:24:19;;;;;;;6.95;5.18;;;20.40;76.90;;;;;;5065233;28;20184;-90
2021/07/18 02:26:45;;;;;;;5.13;4.40;;;20.40;75.80;;;;;;5065085;28;20206;-90
2021/07/18 02:29:11;;;;;;;6.32;5.13;;;20.40;75.70;;;;;;5047416;28;20199;-89
2021/07/18 02:31:36;;;;;;;6.57;4.60;;;20.30;76.00;;;;;;5047859;28;20218;-90
2021/07/18 02:34:03;;;;;;;8.73;4.57;;;20.20;76.30;;;;;;5078188;28;20196;-89
2021/07/18 02:36:29;;;;;;;6.60;5.20;;;20.30;76.90;;;;;;5067512;28;20251;-89
2021/07/18 02:38:55;;;;;;;6.05;4.35;;;20.30;76.80;;;;;;5067449;28;20246;-89
2021/07/18 02:41:21;;;;;;;5.47;4.60;;;20.20;76.20;;;;;;5066282;28;20209;-90
2021/07/18 02:43:46;;;;;;;6.07;4.82;;;20.20;76.60;;;;;;5076338;28;20168;-90
2021/07/18 02:46:12;;;;;;;6.45;4.43;;;20.20;76.70;;;;;;5079531;28;20188;-90
2021/07/18 02:48:38;;;;;;;4.68;4.28;;;20.20;76.70;;;;;;5078934;28;20271;-89
2021/07/18 02:51:05;;;;;;;5.07;4.13;;;20.10;76.80;;;;;;5051087;28;20256;-90
2021/07/18 02:53:31;;;;;;;5.55;4.28;;;20.00;77.10;;;;;;5059082;28;20177;-90
2021/07/18 02:55:57;;;;;;;5.95;4.55;;;20.00;77.10;;;;;;5058991;28;20206;-90
2021/07/18 02:58:23;;;;;;;7.50;4.40;;;19.90;77.80;;;;;;5059569;28;20176;-89
2021/07/18 03:00:49;;;;;;;4.60;4.20;;;19.90;77.30;;;;;;5059258;28;20176;-89
2021/07/18 03:03:16;;;;;;;5.25;4.50;;;19.90;76.90;;;;;;5059021;28;20184;-92
2021/07/18 03:05:41;;;;;;;4.75;4.18;;;19.80;77.00;;;;;;5058897;28;20183;-90
2021/07/18 03:08:08;;;;;;;4.60;4.13;;;19.60;76.60;;;;;;5065769;28;20570;-90
2021/07/18 03:10:33;;;;;;;4.63;3.72;;;19.60;76.80;;;;;;5079197;28;20440;-89
2021/07/18 03:12:59;;;;;;;7.57;4.10;;;19.50;77.10;;;;;;5061218;28;20206;-89
2021/07/18 03:15:26;;;;;;;7.10;4.35;;;19.50;77.60;;;;;;5081819;28;20206;-90
2021/07/18 03:17:52;;;;;;;5.85;4.05;;;19.60;77.00;;;;;;5082757;28;20599;-89
2021/07/18 03:20:19;;;;;;;5.80;3.53;;;19.60;77.90;;;;;;5064149;28;20230;-91
2021/07/18 03:22:46;;;;;;;4.68;3.65;;;19.50;76.90;;;;;;5082649;28;20195;-89
2021/07/18 03:25:13;;;;;;;5.22;3.55;;;19.50;77.10;;;;;;5084197;28;20183;-90
2021/07/18 03:27:39;;;;;;;3.92;3.17;;;19.50;76.90;;;;;;5083744;28;20697;-90
2021/07/18 03:30:07;;;;;;;6.43;3.78;;;19.60;76.50;;;;;;5083257;28;20187;-91
2021/07/18 03:32:33;;;;;;;4.50;3.53;;;19.60;76.30;;;;;;5081838;28;20200;-90
2021/07/18 03:34:59;;;;;;;6.82;3.72;;;19.50;76.10;;;;;;5081290;28;20199;-91
2021/07/18 03:37:25;;;;;;;3.60;3.30;;;19.50;76.20;;;;;;5082896;28;20207;-91
2021/07/18 03:39:50;;;;;;;6.00;3.38;;;19.50;76.10;;;;;;5063236;28;20221;-90
2021/07/18 03:42:16;;;;;;;5.13;3.60;;;19.40;76.90;;;;;;5063415;28;20225;-90
2021/07/18 03:44:42;;;;;;;7.53;4.05;;;19.40;76.90;;;;;;5081561;28;20553;-91
2021/07/18 03:47:07;;;;;;;9.13;3.80;;;19.40;76.80;;;;;;5064920;28;20183;-89
2021/07/18 03:49:34;;;;;;;6.13;3.30;;;19.40;76.60;;;;;;5062854;28;20214;-91
2021/07/18 03:51:59;;;;;;;6.35;3.90;;;19.30;76.70;;;;;;5080874;28;20245;-91
2021/07/18 03:54:25;;;;;;;4.88;3.60;;;19.30;77.40;;;;;;5081839;28;20617;-90
2021/07/18 03:56:51;;;;;;;5.05;3.50;;;19.30;77.80;;;;;;5081726;28;20180;-91
2021/07/18 03:59:17;;;;;;;3.78;3.30;;;19.50;77.30;;;;;;5063128;28;20261;-90
2021/07/18 04:01:42;;;;;;;3.92;3.20;;;19.40;76.80;;;;;;5082311;28;20187;-91
2021/07/18 04:04:08;;;;;;;3.75;3.25;;;19.50;76.80;;;;;;5064795;28;20185;-91
2021/07/18 04:06:33;;;;;;;4.35;3.60;;;19.60;77.90;;;;;;5082581;28;20190;-90
2021/07/18 04:08:59;;;;;;;6.15;3.88;;;19.70;76.80;;;;;;5072061;28;20183;-91
2021/07/18 04:11:25;;;;;;;5.65;4.10;;;19.70;76.40;;;;;;5047673;28;20209;-91
2021/07/18 04:13:51;;;;;;;4.32;3.55;;;19.70;76.40;;;;;;5064171;28;20244;-90
2021/07/18 04:16:17;;;;;;;3.75;3.28;;;19.60;76.40;;;;;;5066319;28;20270;-89
2021/07/18 04:18:42;;;;;;;4.05;3.72;;;19.60;78.50;;;;;;5066097;28;20223;-91
2021/07/18 04:21:08;;;;;;;5.05;3.72;;;19.70;77.90;;;;;;5050073;28;20219;-90
2021/07/18 04:23:34;;;;;;;4.70;3.80;;;19.70;77.40;;;;;;5048587;28;20178;-90
2021/07/18 04:25:59;;;;;;;5.07;3.78;;;19.70;76.60;;;;;;5065421;28;20183;-90
2021/07/18 04:28:25;;;;;;;6.68;4.00;;;19.70;76.30;;;;;;5065609;28;20187;-90
2021/07/18 04:30:51;;;;;;;4.18;3.78;;;19.70;76.70;;;;;;5066368;28;20206;-90
2021/07/18 04:33:16;;;;;;;7.68;4.25;;;19.80;76.90;;;;;;5064731;28;20597;-90
2021/07/18 04:35:42;;;;;;;4.40;4.00;;;19.80;77.00;;;;;;5065049;28;20208;-91
2021/07/18 04:38:08;;;;;;;3.88;3.53;;;19.90;78.30;;;;;;5047622;28;20190;-90
2021/07/18 04:40:35;;;;;;;6.20;4.15;;;19.90;78.70;;;;;;5064577;28;20296;-90
2021/07/18 04:43:01;;;;;;;6.13;4.97;;;20.00;78.20;;;;;;5048366;28;20202;-90
2021/07/18 04:45:27;;;;;;;6.88;4.50;;;20.00;77.80;;;;;;5048129;28;20183;-89
2021/07/18 04:47:55;;;;;;;5.18;4.35;;;20.10;78.00;;;;;;5065916;28;20179;-90
2021/07/18 04:50:22;;;;;;;4.38;3.97;;;20.10;78.30;;;;;;5034909;28;20545;-90
2021/07/18 04:52:48;;;;;;;5.18;4.57;;;20.10;78.10;;;;;;5085114;28;20770;-90
2021/07/18 04:55:14;;;;;;;4.65;4.25;;;20.10;77.80;;;;;;5050907;28;20194;-90
2021/07/18 04:57:40;;;;;;;4.47;4.00;;;20.10;77.60;;;;;;5083632;28;20169;-89
2021/07/18 05:00:15;;;;;;;6.10;4.30;;;20.10;77.10;;;;;;5066423;28;20217;-89
2021/07/18 05:02:41;;;;;;;4.32;3.92;;;20.20;77.70;;;;;;5084949;28;20189;-90
2021/07/18 05:05:11;;;;;;;4.35;4.00;;;20.20;76.10;;;;;;5083886;28;20409;-89
2021/07/18 05:07:54;;;;;;;4.35;3.90;;;20.10;76.80;;;;;;5066742;28;20187;-90
2021/07/18 05:10:22;;;;;;;5.30;4.05;;;20.20;76.60;;;;;;5085142;28;20170;-90
2021/07/18 05:12:50;;;;;;;4.25;3.85;;;20.20;78.30;;;;;;5082862;28;20301;-90
2021/07/18 05:15:16;;;;;;;4.30;3.90;;;20.30;76.80;;;;;;5084367;28;20232;-89
2021/07/18 05:17:42;;;;;;;4.65;4.05;;;20.20;75.70;;;;;;5084501;28;20192;-91
2021/07/18 05:20:09;;;;;;;4.65;3.85;;;20.10;75.90;;;;;;5084057;28;20225;-90
2021/07/18 05:22:35;;;;;;;4.15;3.83;;;19.90;76.10;;;;;;5085006;28;20226;-89
2021/07/18 05:25:03;;;;;;;7.47;3.88;;;20.00;76.30;;;;;;5085705;28;20177;-90
2021/07/18 05:27:28;;;;;;;3.85;3.55;;;20.00;76.10;;;;;;5084118;28;20172;-90
2021/07/18 05:29:54;;;;;;;5.43;3.80;;;19.90;76.60;;;;;;5049550;28;20185;-90
2021/07/18 05:32:20;;;;;;;5.25;3.80;;;19.90;76.20;;;;;;5084491;28;20203;-91
2021/07/18 05:34:45;;;;;;;4.25;3.40;;;19.90;76.20;;;;;;5050372;28;20194;-90
2021/07/18 05:37:11;;;;;;;4.22;3.35;;;19.70;76.20;;;;;;5084423;28;20183;-90
2021/07/18 05:39:37;;;;;;;5.57;3.70;;;19.70;77.50;;;;;;5085474;28;20207;-90
2021/07/18 05:42:03;;;;;;;4.95;3.63;;;19.70;76.80;;;;;;5066609;28;20524;-90
2021/07/18 05:44:29;;;;;;;3.92;3.60;;;19.70;76.80;;;;;;5049714;28;20183;-89
2021/07/18 05:46:55;;;;;;;4.00;3.28;;;19.60;76.60;;;;;;5065461;28;20193;-90
2021/07/18 05:49:21;;;;;;;3.72;3.33;;;19.60;76.80;;;;;;5065662;28;20215;-90
2021/07/18 05:51:47;;;;;;;5.50;3.25;;;19.50;77.20;;;;;;5084389;28;20208;-90
2021/07/18 05:54:12;;;;;;;3.38;3.08;;;19.60;76.80;;;;;;5084103;28;20214;-89
2021/07/18 05:56:38;;;;;;;5.00;3.38;;;19.60;76.90;;;;;;5066107;28;20245;-89
2021/07/18 05:59:04;;;;;;;4.32;3.22;;;19.40;77.20;;;;;;5067993;28;20207;-91
2021/07/18 06:01:30;;;;;;;6.10;3.58;;;19.50;77.80;;;;;;5086283;28;20220;-89
2021/07/18 06:03:56;;;;;;;6.22;3.88;;;19.60;77.00;;;;;;5084256;28;20198;-90
2021/07/18 06:06:21;;;;;;;7.90;3.63;;;19.60;76.50;;;;;;5066252;28;20183;-89
2021/07/18 06:08:47;;;;;;;5.82;3.58;;;19.50;77.30;;;;;;5071744;28;20208;-90
2021/07/18 06:11:13;;;;;;;4.03;3.30;;;19.60;77.10;;;;;;5063703;28;20211;-90
2021/07/18 06:13:39;;;;;;;3.72;3.30;;;19.50;77.50;;;;;;5045474;28;20630;-89
2021/07/18 06:16:05;;;;;;;4.15;3.20;;;19.50;77.80;;;;;;5063760;28;20180;-88
2021/07/18 06:18:31;;;;;;;5.65;3.50;;;19.60;77.20;;;;;;5046189;28;20246;-89
2021/07/18 06:20:56;;;;;;;6.30;3.72;;;19.50;77.70;;;;;;5062215;28;20206;-90
2021/07/18 06:23:22;;;;;;;4.15;3.08;;;19.60;77.90;;;;;;5064367;28;20176;-89
2021/07/18 06:25:48;;;;;;;5.68;3.15;;;19.60;77.00;;;;;;5062898;28;20206;-90
2021/07/18 06:28:13;;;;;;;3.60;3.30;;;19.70;77.00;;;;;;5063653;28;20176;-90
2021/07/18 06:30:39;;;;;;;4.25;3.63;;;19.80;76.40;;;;;;5062646;28;20208;-90
2021/07/18 06:33:05;;;;;;;4.72;3.08;;;19.80;76.20;;;;;;5062840;28;20226;-89
2021/07/18 06:35:31;;;;;;;6.78;3.75;;;19.80;75.50;;;;;;5063280;28;20187;-90
2021/07/18 06:37:56;;;;;;;3.92;3.50;;;19.80;76.50;;;;;;5063939;28;20184;-89
2021/07/18 06:40:22;;;;;;;4.68;3.58;;;19.80;76.10;;;;;;5065823;28;20230;-89
2021/07/18 06:42:48;;;;;;;4.25;3.22;;;19.90;75.30;;;;;;5046914;28;20563;-90
2021/07/18 06:45:14;;;;;;;3.53;3.22;;;19.90;75.00;;;;;;5064692;28;20191;-89
2021/07/18 06:47:40;;;;;;;4.35;3.13;;;19.90;74.20;;;;;;5064831;28;20259;-90
2021/07/18 06:50:07;;;;;;;4.28;2.90;;;19.90;74.60;;;;;;5048099;28;20254;-90
2021/07/18 06:52:32;;;;;;;3.95;2.95;;;20.00;74.80;;;;;;5067513;28;20203;-89
2021/07/18 06:54:58;;;;;;;3.28;2.83;;;20.10;74.70;;;;;;5084632;28;20265;-90
2021/07/18 06:57:24;;;;;;;9.55;3.47;;;20.00;74.50;;;;;;5083661;28;20205;-89
2021/07/18 06:59:50;;;;;;;3.50;3.05;;;20.20;74.20;;;;;;5084067;28;20207;-90
2021/07/18 07:02:16;;;;;;;5.38;3.00;;;20.30;74.50;;;;;;5050248;28;20207;-89
2021/07/18 07:04:43;;;;;;;6.95;2.83;;;20.30;74.20;;;;;;5083921;28;20176;-89
2021/07/18 07:07:09;;;;;;;4.95;3.67;;;20.40;73.40;;;;;;5083993;28;20279;-90
2021/07/18 07:09:35;;;;;;;3.67;3.20;;;20.40;72.90;;;;;;5049256;28;20286;-90
2021/07/18 07:12:00;;;;;;;3.72;3.15;;;20.50;73.20;;;;;;5064803;28;20195;-91
2021/07/18 07:14:26;;;;;;;5.85;3.45;;;20.50;72.40;;;;;;5084864;28;20207;-90
2021/07/18 07:16:52;;;;;;;5.10;3.25;;;20.50;72.90;;;;;;5084947;28;20646;-89
2021/07/18 07:19:17;;;;;;;3.88;3.10;;;20.50;72.70;;;;;;5085451;28;20271;-89
2021/07/18 07:21:43;;;;;;;4.65;3.30;;;20.70;71.90;;;;;;5083406;28;20259;-90
2021/07/18 07:24:09;;;;;;;3.67;3.08;;;20.70;72.30;;;;;;5067047;28;20198;-89
2021/07/18 07:26:35;;;;;;;4.20;3.25;;;20.70;72.00;;;;;;5066608;28;20199;-89
2021/07/18 07:29:01;;;;;;;3.58;3.28;;;20.80;71.40;;;;;;5083427;28;20194;-90
2021/07/18 07:31:27;;;;;;;4.13;2.95;;;20.80;71.60;;;;;;5084604;28;20195;-89
2021/07/18 07:33:53;;;;;;;7.95;3.83;;;20.90;71.40;;;;;;5084444;28;20187;-89
2021/07/18 07:36:19;;;;;;;6.30;3.10;;;20.80;71.10;;;;;;5065002;28;20183;-88
2021/07/18 07:38:45;;;;;;;7.03;3.25;;;20.90;71.30;;;;;;5085185;28;20182;-91
2021/07/18 07:41:11;;;;;;;4.10;3.30;;;20.80;71.30;;;;;;5066878;28;20183;-89
2021/07/18 07:43:37;;;;;;;2.97;2.72;;;20.80;70.30;;;;;;5065888;28;20199;-89
2021/07/18 07:46:03;;;;;;;3.28;2.97;;;21.00;71.30;;;;;;5084512;28;20175;-89
2021/07/18 07:48:29;;;;;;;3.45;3.13;;;21.10;71.30;;;;;;5066435;28;20183;-91
2021/07/18 07:50:57;;;;;;;3.95;3.30;;;21.40;70.40;;;;;;5066334;28;20230;-89
2021/07/18 07:53:23;;;;;;;3.83;3.30;;;21.40;69.10;;;;;;5065983;28;20225;-89
2021/07/18 07:55:49;;;;;;;3.85;3.00;;;21.40;69.10;;;;;;5065748;28;20194;-89
2021/07/18 07:58:15;;;;;;;5.45;3.30;;;21.50;69.20;;;;;;5083422;28;20270;-89
2021/07/18 08:00:41;;;;;;;5.32;3.35;;;21.50;69.80;;;;;;5083192;28;20199;-88
2021/07/18 08:03:09;;;;;;;6.18;3.33;;;21.50;69.20;;;;;;5083777;28;20203;-89
2021/07/18 08:05:35;;;;;;;5.43;3.88;;;21.60;68.50;;;;;;5085216;28;20179;-89
2021/07/18 08:08:01;;;;;;;4.40;3.13;;;21.80;69.30;;;;;;5083201;28;20187;-89
2021/07/18 08:10:27;;;;;;;6.32;3.55;;;21.90;68.20;;;;;;5083708;28;20766;-89
2021/07/18 08:12:53;;;;;;;5.57;3.40;;;21.90;67.90;;;;;;5081479;28;20224;-89
2021/07/18 08:15:20;;;;;;;4.88;3.38;;;22.10;67.70;;;;;;5084722;28;20186;-89
2021/07/18 08:17:47;;;;;;;5.22;3.55;;;22.20;67.20;;;;;;5083836;28;20230;-90
2021/07/18 08:20:16;;;;;;;4.95;3.90;;;22.20;67.50;;;;;;5083056;28;20218;-91
2021/07/18 08:22:44;;;;;;;4.60;3.30;;;22.00;67.40;;;;;;5082495;28;20645;-91
2021/07/18 08:25:11;;;;;;;3.75;3.22;;;22.20;67.10;;;;;;5083554;28;20178;-90
2021/07/18 08:27:37;;;;;;;5.15;3.67;;;22.30;67.20;;;;;;5065762;28;20240;-89
2021/07/18 08:30:06;;;;;;;3.95;3.25;;;22.50;66.50;;;;;;5083715;28;20184;-89
2021/07/18 08:32:32;;;;;;;8.30;3.80;;;22.50;67.00;;;;;;5084253;28;20207;-90
2021/07/18 08:34:58;;;;;;;5.50;3.38;;;22.70;65.70;;;;;;5065607;28;20201;-90
2021/07/18 08:37:24;;;;;;;3.95;3.47;;;22.90;65.80;;;;;;5084482;28;20200;-88
2021/07/18 08:39:51;;;;;;;4.32;3.28;;;23.10;65.10;;;;;;5084991;28;20272;-90
2021/07/18 08:42:17;;;;;;;5.65;4.05;;;23.00;65.00;;;;;;5082911;28;20192;-90
2021/07/18 08:44:43;;;;;;;7.13;3.40;;;23.00;65.40;;;;;;5083002;28;20235;-90
2021/07/18 08:47:09;;;;;;;5.00;3.15;;;23.10;65.30;;;;;;5083549;28;20198;-90
2021/07/18 08:49:37;;;;;;;4.38;3.55;;;23.20;66.10;;;;;;5064100;28;20179;-90
2021/07/18 08:52:03;;;;;;;4.47;3.50;;;23.40;63.40;;;;;;5065173;28;20203;-89
2021/07/18 08:54:30;;;;;;;6.05;3.58;;;23.50;63.10;;;;;;5068759;28;20195;-90
2021/07/18 08:57:00;;;;;;;5.60;3.47;;;23.50;63.70;;;;;;5087417;28;20188;-88
2021/07/18 08:59:26;;;;;;;5.75;3.30;;;23.40;62.70;;;;;;5086262;28;20212;-90
2021/07/18 09:01:52;;;;;;;4.40;3.72;;;23.60;63.40;;;;;;5086561;28;20226;-90
2021/07/18 09:04:18;;;;;;;5.85;3.33;;;23.70;63.10;;;;;;5086347;28;20856;-90
2021/07/18 09:06:49;;;;;;;5.05;3.67;;;23.80;61.90;;;;;;5059456;28;20179;-89
2021/07/18 09:09:17;;;;;;;3.00;2.80;;;23.80;61.20;;;;;;5064209;28;20188;-90
2021/07/18 09:11:53;;;;;;;3.80;3.25;;;24.10;61.90;;;;;;5059808;28;20203;-90
2021/07/18 09:14:18;;;;;;;6.35;3.65;;;24.20;61.80;;;;;;5059713;28;20176;-89
2021/07/18 09:16:44;;;;;;;4.45;3.60;;;24.20;61.00;;;;;;5058747;28;20193;-90
2021/07/18 09:19:32;;;;;;;4.35;3.30;;;24.30;59.40;;;;;;5041394;28;20212;-90
2021/07/18 09:22:04;;;;;;;6.13;3.08;;;24.20;59.80;;;;;;5059350;28;20215;-91
2021/07/18 09:24:52;;;;;;;4.20;3.80;;;24.40;59.50;;;;;;5042250;28;20191;-90
2021/07/18 09:27:27;;;;;;;5.00;3.45;;;24.60;59.70;;;;;;5064174;28;20184;-91
2021/07/18 09:30:03;;;;;;;6.07;3.45;;;24.60;59.10;;;;;;5046657;28;20230;-90
2021/07/18 09:32:30;;;;;;;8.25;3.83;;;24.70;59.80;;;;;;5063804;28;20393;-91
2021/07/18 09:35:07;;;;;;;3.97;3.58;;;24.90;58.00;;;;;;5046834;28;20203;-91
2021/07/18 09:37:35;;;;;;;5.97;3.50;;;24.90;58.10;;;;;;5064587;28;20233;-91
2021/07/18 09:40:10;;;;;;;4.70;3.58;;;25.20;57.10;;;;;;5046564;28;20212;-90
2021/07/18 09:42:42;;;;;;;3.95;3.65;;;25.40;57.10;;;;;;5063132;28;20211;-91
2021/07/18 09:45:37;;;;;;;3.50;3.20;;;25.60;57.20;;;;;;5064609;28;20168;-90
2021/07/18 09:48:06;;;;;;;6.93;4.07;;;25.80;54.80;;;;;;5063484;28;20188;-91
2021/07/18 09:50:40;;;;;;;4.85;3.20;;;25.90;55.90;;;;;;5064671;28;20178;-91
2021/07/18 09:53:09;;;;;;;5.43;3.88;;;26.10;58.10;;;;;;5046817;28;20279;-90
2021/07/18 09:55:36;;;;;;;6.32;3.97;;;26.10;54.60;;;;;;5064442;28;20176;-90
2021/07/18 09:58:02;;;;;;;4.40;3.75;;;25.90;55.70;;;;;;5064706;28;20176;-90
2021/07/18 10:00:58;;;;;;;4.80;3.80;;;26.00;56.00;;;;;;5064460;28;20196;-89
2021/07/18 10:03:27;;;;;;;3.88;3.30;;;26.00;55.40;;;;;;5035503;28;20770;-90
2021/07/18 10:06:15;;;;;;;3.88;3.38;;;25.80;55.50;;;;;;5049536;28;20180;-90
2021/07/18 10:08:49;;;;;;;4.18;3.88;;;25.90;55.30;;;;;;5074444;28;20255;-90
2021/07/18 10:11:21;;;;;;;3.88;3.60;;;26.10;54.50;;;;;;5066521;28;20199;-90
2021/07/18 10:13:49;;;;;;;8.48;3.80;;;26.30;55.30;;;;;;5083969;28;20669;-91
2021/07/18 10:16:16;;;;;;;5.18;3.55;;;26.40;54.70;;;;;;5085085;28;20203;-90
2021/07/18 10:18:44;;;;;;;4.88;4.20;;;26.80;54.70;;;;;;5083987;28;20172;-90
2021/07/18 10:21:12;;;;;;;4.85;4.05;;;26.80;52.70;;;;;;5066755;28;20180;-90
2021/07/18 10:23:42;;;;;;;7.97;3.92;;;26.50;54.40;;;;;;5083728;28;20187;-91
2021/07/18 10:26:13;;;;;;;5.07;3.70;;;26.80;54.00;;;;;;5065396;28;20206;-91
2021/07/18 10:28:39;;;;;;;4.30;3.83;;;26.90;53.00;;;;;;5083519;28;20166;-90
2021/07/18 10:31:11;;;;;;;5.00;3.70;;;26.80;53.50;;;;;;5083734;28;20186;-90
2021/07/18 10:33:37;;;;;;;4.82;4.00;;;26.90;53.60;;;;;;5084643;28;20171;-90
2021/07/18 10:36:04;;;;;;;5.10;3.72;;;27.00;52.60;;;;;;5084764;28;20547;-90
2021/07/18 10:38:35;;;;;;;4.65;3.60;;;27.10;51.40;;;;;;5084228;28;20180;-90
2021/07/18 10:41:01;;;;;;;6.63;4.13;;;27.20;52.70;;;;;;5081101;28;20164;-91
2021/07/18 10:43:37;;;;;;;5.82;3.70;;;27.50;51.90;;;;;;5080074;28;20237;-90
2021/07/18 10:46:04;;;;;;;6.30;3.83;;;27.70;51.80;;;;;;5080775;28;20266;-91
2021/07/18 10:48:49;;;;;;;10.48;4.63;;;27.90;50.30;;;;;;5080589;28;20642;-90
2021/07/18 10:51:20;;;;;;;8.00;4.25;;;27.50;50.00;;;;;;5080569;28;20195;-91
2021/07/18 10:53:49;;;;;;;4.40;3.70;;;27.70;50.10;;;;;;5062193;28;20193;-90
2021/07/18 10:56:19;;;;;;;7.32;4.25;;;28.10;49.90;;;;;;5062125;28;20190;-91
2021/07/18 10:58:47;;;;;;;7.15;3.90;;;28.30;49.20;;;;;;5063163;28;20654;-90
2021/07/18 11:01:23;;;;;;;5.53;3.47;;;28.40;49.20;;;;;;5086276;28;21933;-90
2021/07/18 11:03:49;;;;;;;6.55;4.45;;;28.70;48.60;;;;;;5085355;28;20175;-90
2021/07/18 11:06:26;;;;;;;7.10;3.92;;;28.80;46.00;;;;;;5085792;28;20186;-90
2021/07/18 11:09:14;;;;;;;4.55;3.90;;;28.80;46.70;;;;;;5085414;28;20239;-90
2021/07/18 11:11:48;;;;;;;6.00;4.28;;;28.90;47.00;;;;;;5066298;28;20219;-91
2021/07/18 11:14:36;;;;;;;5.75;4.07;;;28.80;46.60;;;;;;5066799;28;20250;-89
2021/07/18 11:17:03;;;;;;;5.57;3.90;;;28.90;45.40;;;;;;5066417;28;20183;-90
2021/07/18 11:19:35;;;;;;;7.13;4.10;;;29.00;46.00;;;;;;5066408;28;20207;-89
2021/07/18 11:22:02;;;;;;;7.35;3.95;;;28.80;46.30;;;;;;5073423;28;20192;-91
2021/07/18 11:24:53;;;;;;;4.97;4.20;;;28.80;45.90;;;;;;5070282;28;20182;-91
2021/07/18 11:27:26;;;;;;;10.40;4.80;;;28.80;47.20;;;;;;5088721;28;20198;-90
2021/07/18 11:29:52;;;;;;;8.00;4.93;;;28.90;46.80;;;;;;5086099;28;20516;-90
2021/07/18 11:32:26;;;;;;;4.43;3.60;;;29.10;47.90;;;;;;5089206;28;20196;-90
2021/07/18 11:34:53;;;;;;;7.18;3.88;;;29.50;46.90;;;;;;5069070;28;20183;-89
2021/07/18 11:37:20;;;;;;;5.85;4.13;;;29.30;47.50;;;;;;5067195;28;20186;-89
2021/07/18 11:39:46;;;;;;;7.22;4.68;;;29.00;48.10;;;;;;5083264;28;20259;-91
2021/07/18 11:42:14;;;;;;;5.88;4.45;;;29.30;46.50;;;;;;5082822;28;20708;-89
2021/07/18 11:44:45;;;;;;;4.88;4.38;;;29.40;46.60;;;;;;5083684;28;20229;-89
2021/07/18 11:47:15;;;;;;;5.13;4.13;;;29.20;48.40;;;;;;5065352;28;20176;-91
2021/07/18 11:49:43;;;;;;;8.10;4.63;;;29.30;48.80;;;;;;5065292;28;20179;-89
2021/07/18 11:52:10;;;;;;;6.13;4.20;;;29.20;48.50;;;;;;5089237;28;20186;-89
2021/07/18 11:54:37;;;;;;;5.05;4.55;;;29.50;46.40;;;;;;5082147;28;20176;-90
2021/07/18 11:57:09;;;;;;;4.38;4.05;;;29.60;46.30;;;;;;5082693;28;20181;-90
2021/07/18 11:59:39;;;;;;;4.75;4.18;;;30.30;45.80;;;;;;5063781;28;20206;-91
2021/07/18 12:02:06;;;;;;;6.88;4.07;;;30.40;45.40;;;;;;5082729;28;20270;-90
2021/07/18 12:04:32;;;;;;;4.95;4.43;;;30.00;45.70;;;;;;5083067;28;20174;-90
2021/07/18 12:07:10;;;;;;;6.60;4.18;;;29.70;45.30;;;;;;5085909;28;20198;-89
2021/07/18 12:09:38;;;;;;;5.60;5.00;;;29.90;45.90;;;;;;5029929;28;20249;-90
2021/07/18 12:12:06;;;;;;;8.82;4.35;;;30.10;44.80;;;;;;5062131;28;20210;-90
2021/07/18 12:14:35;;;;;;;6.47;4.75;;;30.30;44.00;;;;;;5062981;28;20180;-91
2021/07/18 12:17:03;;;;;;;8.65;6.18;;;30.40;44.50;;;;;;5062188;28;20536;-90
2021/07/18 12:19:30;;;;;;;6.60;6.00;;;30.50;44.00;;;;;;5063472;28;20196;-90
2021/07/18 12:21:58;;;;;;;6.70;5.53;;;30.30;43.00;;;;;;5061494;28;20196;-90
2021/07/18 12:24:36;;;;;;;7.55;5.90;;;30.10;45.00;;;;;;5062555;28;20192;-90
2021/07/18 12:27:06;;;;;;;7.68;6.00;;;30.40;43.80;;;;;;5061313;28;20246;-91
2021/07/18 12:29:34;;;;;;;6.47;5.80;;;30.80;42.50;;;;;;5046890;28;20194;-91
2021/07/18 12:32:00;;;;;;;10.70;6.85;;;31.20;42.70;;;;;;5065606;28;20204;-90
2021/07/18 12:34:35;;;;;;;7.47;6.78;;;30.90;42.10;;;;;;5065852;28;20311;-90
2021/07/18 12:37:02;;;;;;;9.32;8.30;;;31.20;41.00;;;;;;5065897;28;20253;-90
2021/07/18 12:39:33;;;;;;;8.43;7.47;;;31.40;39.60;;;;;;5047597;28;20683;-90
2021/07/18 12:42:02;;;;;;;8.35;7.55;;;31.10;41.60;;;;;;5048011;28;20200;-91
2021/07/18 12:44:33;;;;;;;8.73;7.78;;;31.40;40.40;;;;;;5065209;28;20183;-91
2021/07/18 12:47:18;;;;;;;8.40;7.70;;;31.50;40.60;;;;;;5069865;28;20160;-90